Time;durP1;ratioP1;P1;durP2;ratioP2;P2;SDS_P1;SDS_P2;PMS_P1;PMS_P2;Temp;Humidity;BMP_temperature;BMP_pressure;BME280_temperature;BME280_humidity;BME280_pressure;Samples;Min_cycle;Max_cycle;Signal;HPM_P1;HPM_P2
2021/06/07 00:01:22;;;;;;;5.47;3.78;;;22.20;96.70;;;;;;5081634;28;20032;-76
2021/06/07 00:03:54;;;;;;;4.13;3.38;;;22.20;96.70;;;;;;5114139;27;20043;-75
2021/06/07 00:06:25;;;;;;;7.93;4.07;;;22.10;96.70;;;;;;5101687;27;20035;-75
2021/06/07 00:08:55;;;;;;;5.32;3.28;;;22.10;96.70;;;;;;5100874;28;20032;-76
2021/06/07 00:11:25;;;;;;;3.90;3.33;;;22.10;96.70;;;;;;5115657;27;20051;-76
2021/06/07 00:13:55;;;;;;;4.95;3.38;;;22.10;96.70;;;;;;5101090;27;20074;-75
2021/06/07 00:16:26;;;;;;;4.53;3.63;;;22.00;96.70;;;;;;5101495;28;20126;-76
2021/06/07 00:18:58;;;;;;;3.60;3.28;;;21.90;96.70;;;;;;5095601;28;20088;-76
2021/06/07 00:21:30;;;;;;;6.05;3.40;;;22.10;96.70;;;;;;5101894;28;20035;-76
2021/06/07 00:24:01;;;;;;;5.07;3.45;;;22.20;96.70;;;;;;5100926;28;20542;-76
2021/06/07 00:26:30;;;;;;;4.22;3.45;;;22.20;96.70;;;;;;5097643;28;20036;-76
2021/06/07 00:29:00;;;;;;;4.80;3.58;;;22.00;96.70;;;;;;5097709;28;20441;-75
2021/06/07 00:31:30;;;;;;;3.95;3.55;;;21.90;96.70;;;;;;5100027;28;20295;-75
2021/06/07 00:34:02;;;;;;;5.93;3.95;;;21.80;96.70;;;;;;5115908;27;20143;-76
2021/06/07 00:36:31;;;;;;;4.10;3.70;;;21.70;96.70;;;;;;5100343;28;20381;-75
2021/06/07 00:39:00;;;;;;;4.53;3.85;;;21.70;96.70;;;;;;5082715;28;20044;-76
2021/06/07 00:41:30;;;;;;;6.15;4.00;;;21.70;96.70;;;;;;5098509;28;20580;-76
2021/06/07 00:44:01;;;;;;;6.93;4.35;;;21.70;96.70;;;;;;5110979;28;20138;-76
2021/06/07 00:46:31;;;;;;;4.05;3.63;;;21.60;96.70;;;;;;5100301;28;20212;-76
2021/06/07 00:49:05;;;;;;;5.35;3.40;;;21.50;96.70;;;;;;5099906;28;20139;-76
2021/06/07 00:51:35;;;;;;;5.72;3.20;;;21.60;96.70;;;;;;5099856;28;20055;-76
2021/06/07 00:54:07;;;;;;;5.00;3.92;;;21.60;96.70;;;;;;5093413;28;20047;-76
2021/06/07 00:56:37;;;;;;;4.55;3.72;;;21.70;96.70;;;;;;5100516;28;20071;-76
2021/06/07 00:59:08;;;;;;;4.15;3.70;;;21.80;96.70;;;;;;5097269;28;20588;-76
2021/06/07 01:01:38;;;;;;;4.55;3.40;;;21.80;96.70;;;;;;5101741;28;20080;-76
2021/06/07 01:04:12;;;;;;;5.07;3.70;;;21.70;96.70;;;;;;5100706;28;20791;-75
2021/06/07 01:06:42;;;;;;;3.67;3.25;;;21.70;96.70;;;;;;5098570;28;20399;-76
2021/06/07 01:09:12;;;;;;;3.72;3.35;;;21.50;96.70;;;;;;5099537;28;20040;-76
2021/06/07 01:11:42;;;;;;;5.30;3.33;;;21.50;96.70;;;;;;5097961;28;20046;-76
2021/06/07 01:14:10;;;;;;;3.67;3.30;;;21.50;96.70;;;;;;5093573;28;20467;-76
2021/06/07 01:16:40;;;;;;;3.95;3.40;;;21.30;96.70;;;;;;5081417;28;20509;-76
2021/06/07 01:19:12;;;;;;;4.50;3.30;;;21.20;96.70;;;;;;5103776;28;20047;-76
2021/06/07 01:21:42;;;;;;;6.70;3.65;;;21.20;96.70;;;;;;5099403;28;20039;-76
2021/06/07 01:24:13;;;;;;;6.55;3.60;;;21.10;96.70;;;;;;5118280;27;20134;-76
2021/06/07 01:26:42;;;;;;;7.03;3.60;;;21.10;96.70;;;;;;5100759;27;20048;-76
2021/06/07 01:29:12;;;;;;;4.65;3.22;;;21.30;96.70;;;;;;5108216;27;20100;-76
2021/06/07 01:31:43;;;;;;;4.90;3.50;;;21.40;96.70;;;;;;5103258;27;20047;-76
2021/06/07 01:34:13;;;;;;;5.05;3.80;;;21.50;96.70;;;;;;5102331;28;20032;-75
2021/06/07 01:40:15;;;;;;;4.60;3.60;;;21.40;96.70;;;;;;5097765;27;20048;-76
2021/06/07 01:42:44;;;;;;;4.80;3.33;;;21.40;96.70;;;;;;5102416;27;20122;-76
2021/06/07 01:45:17;;;;;;;5.88;3.13;;;21.40;96.70;;;;;;5103775;27;20093;-76
2021/06/07 01:47:47;;;;;;;5.70;4.25;;;21.40;96.70;;;;;;5103076;27;20032;-76
2021/06/07 01:50:16;;;;;;;5.15;4.07;;;21.40;96.70;;;;;;5098767;28;20035;-76
2021/06/07 01:52:48;;;;;;;4.28;3.65;;;21.30;96.70;;;;;;5100714;27;20050;-76
2021/06/07 01:55:19;;;;;;;4.32;3.90;;;21.20;96.70;;;;;;5101646;27;20047;-76
2021/06/07 01:57:49;;;;;;;6.13;3.90;;;21.20;96.70;;;;;;5102295;27;20043;-75
2021/06/07 02:00:24;;;;;;;5.85;4.00;;;21.20;96.70;;;;;;5104301;27;20060;-76
2021/06/07 02:02:54;;;;;;;5.13;4.40;;;21.30;96.70;;;;;;5104396;28;20052;-75
2021/06/07 02:05:27;;;;;;;4.32;3.95;;;21.30;96.70;;;;;;5101177;27;20401;-76
2021/06/07 02:07:59;;;;;;;5.53;4.18;;;21.30;96.70;;;;;;5100287;28;20067;-76
2021/06/07 02:10:35;;;;;;;4.03;3.38;;;21.30;96.70;;;;;;5099647;28;20043;-76
2021/06/07 02:13:05;;;;;;;5.10;3.83;;;21.30;96.70;;;;;;5101235;27;20539;-76
2021/06/07 02:15:35;;;;;;;7.00;3.67;;;21.30;96.70;;;;;;5099170;27;20691;-76
2021/06/07 02:18:07;;;;;;;4.03;3.42;;;21.30;96.70;;;;;;5105067;27;20059;-76
2021/06/07 02:20:37;;;;;;;4.43;3.53;;;21.30;96.70;;;;;;5116554;27;20098;-76
2021/06/07 02:23:06;;;;;;;4.00;3.33;;;21.20;96.70;;;;;;5101616;27;20053;-76
2021/06/07 02:25:36;;;;;;;5.22;3.45;;;21.10;96.70;;;;;;5099314;27;20047;-76
2021/06/07 02:28:10;;;;;;;5.22;3.58;;;21.10;96.70;;;;;;5122238;27;20100;-76
2021/06/07 02:30:40;;;;;;;4.95;3.58;;;21.20;96.70;;;;;;5101705;27;20146;-76
2021/06/07 02:33:09;;;;;;;5.45;3.58;;;21.20;96.70;;;;;;5098553;27;20042;-76
2021/06/07 02:36:08;;;;;;;4.68;3.33;;;21.20;96.70;;;;;;5100581;27;20829;-76
2021/06/07 02:38:37;;;;;;;4.85;3.38;;;21.10;96.70;;;;;;5079896;28;20048;-76
2021/06/07 02:41:08;;;;;;;3.65;3.30;;;21.10;96.70;;;;;;5100244;28;20127;-76
2021/06/07 02:43:37;;;;;;;5.45;3.42;;;21.10;96.70;;;;;;5101512;27;20489;-76
2021/06/07 02:46:07;;;;;;;3.53;3.22;;;21.00;96.70;;;;;;5121465;27;20493;-76
2021/06/07 02:48:37;;;;;;;5.60;3.30;;;21.00;96.70;;;;;;5099792;28;20054;-76
2021/06/07 02:51:06;;;;;;;4.22;3.47;;;20.80;96.70;;;;;;5102422;27;20033;-76
2021/06/07 02:53:36;;;;;;;6.25;3.42;;;20.70;96.70;;;;;;5097867;28;20092;-76
2021/06/07 02:56:09;;;;;;;3.63;3.33;;;20.60;96.70;;;;;;5100243;27;20112;-76
2021/06/07 02:58:39;;;;;;;3.78;3.47;;;20.70;96.70;;;;;;5087298;27;20046;-76
2021/06/07 03:01:10;;;;;;;4.25;3.35;;;20.80;96.70;;;;;;5102003;27;20079;-76
2021/06/07 03:03:46;;;;;;;3.67;3.22;;;20.80;96.70;;;;;;5097571;28;20040;-76
2021/06/07 03:06:20;;;;;;;3.85;3.50;;;20.90;96.70;;;;;;5103039;27;20031;-76
2021/06/07 03:09:04;;;;;;;4.18;3.70;;;20.90;96.70;;;;;;5087594;28;20118;-76
2021/06/07 03:11:50;;;;;;;3.95;3.40;;;20.80;96.70;;;;;;5100497;28;20050;-76
2021/06/07 03:14:33;;;;;;;3.45;3.15;;;20.80;96.70;;;;;;5101920;27;20067;-76
2021/06/07 03:17:09;;;;;;;5.63;3.70;;;20.90;96.70;;;;;;5086362;27;20271;-77
2021/06/07 03:19:37;;;;;;;6.03;3.63;;;20.90;96.70;;;;;;5103204;27;20393;-77
2021/06/07 03:22:06;;;;;;;5.35;3.47;;;20.70;96.70;;;;;;5082932;28;20076;-76
2021/06/07 03:24:34;;;;;;;5.22;3.80;;;20.70;96.70;;;;;;5094040;28;20893;-76
2021/06/07 03:27:05;;;;;;;4.80;3.13;;;20.70;96.70;;;;;;5097297;27;20044;-76
2021/06/07 03:29:33;;;;;;;4.57;3.17;;;20.70;96.70;;;;;;5101360;27;20081;-77
2021/06/07 03:32:02;;;;;;;4.25;3.40;;;20.80;96.70;;;;;;5099163;28;20043;-76
2021/06/07 03:34:30;;;;;;;2.83;2.63;;;20.90;96.70;;;;;;5101475;27;20086;-76
2021/06/07 03:36:59;;;;;;;4.88;3.63;;;20.90;96.70;;;;;;5100506;27;20508;-77
2021/06/07 03:39:28;;;;;;;3.67;3.30;;;20.80;96.70;;;;;;5101338;27;20051;-76
2021/06/07 03:41:59;;;;;;;4.65;3.85;;;20.90;96.70;;;;;;5101860;27;20432;-76
2021/06/07 03:44:38;;;;;;;4.07;3.67;;;20.80;96.70;;;;;;5105636;27;20145;-76
2021/06/07 03:47:09;;;;;;;6.53;3.90;;;20.70;96.70;;;;;;5097578;28;20031;-76
2021/06/07 03:49:39;;;;;;;4.07;3.67;;;20.70;96.70;;;;;;5093486;27;20472;-76
2021/06/07 03:52:09;;;;;;;6.75;3.83;;;20.60;96.70;;;;;;5099860;27;20039;-76
2021/06/07 03:54:38;;;;;;;5.40;3.90;;;20.70;96.70;;;;;;5099141;27;20035;-76
2021/06/07 03:57:08;;;;;;;4.97;3.70;;;20.80;96.70;;;;;;5100179;28;20405;-76
2021/06/07 03:59:38;;;;;;;3.90;3.50;;;20.80;96.70;;;;;;5100790;27;20408;-76
2021/06/07 04:02:09;;;;;;;4.85;3.30;;;20.80;96.70;;;;;;5101832;27;20063;-76
2021/06/07 04:04:41;;;;;;;4.60;3.42;;;20.90;96.70;;;;;;5099010;28;20085;-76
2021/06/07 04:07:11;;;;;;;8.07;3.70;;;20.90;96.70;;;;;;5098819;28;20054;-76
2021/06/07 04:09:42;;;;;;;4.75;3.58;;;20.90;96.70;;;;;;5099863;28;20044;-76
2021/06/07 04:12:12;;;;;;;3.80;3.30;;;20.90;96.70;;;;;;5098740;28;20040;-75
2021/06/07 04:14:44;;;;;;;4.30;3.60;;;20.90;96.70;;;;;;5100953;28;20066;-75
2021/06/07 04:17:13;;;;;;;4.25;3.22;;;20.90;96.70;;;;;;5102422;27;20118;-76
2021/06/07 04:19:41;;;;;;;4.22;3.15;;;20.90;96.70;;;;;;5082490;28;20048;-76
2021/06/07 04:22:10;;;;;;;4.63;3.28;;;20.90;96.70;;;;;;5104201;28;20763;-76
2021/06/07 04:24:39;;;;;;;3.47;2.88;;;20.90;96.70;;;;;;5097829;28;20366;-76
2021/06/07 04:27:09;;;;;;;4.20;2.80;;;20.90;96.70;;;;;;5097087;28;20035;-76
2021/06/07 04:29:39;;;;;;;5.22;3.35;;;21.00;96.70;;;;;;5085588;28;20099;-76
2021/06/07 04:32:10;;;;;;;4.18;2.85;;;21.10;96.70;;;;;;5090630;27;20036;-75
2021/06/07 04:34:38;;;;;;;5.28;3.28;;;21.00;96.70;;;;;;5084790;27;20047;-76
2021/06/07 04:37:07;;;;;;;3.10;2.65;;;20.90;96.70;;;;;;5100381;28;20078;-75
2021/06/07 04:39:36;;;;;;;4.70;3.22;;;20.90;96.70;;;;;;5084259;28;20116;-76
2021/06/07 04:42:05;;;;;;;3.83;2.85;;;21.00;96.70;;;;;;5099631;28;20058;-76
2021/06/07 04:44:34;;;;;;;3.40;2.97;;;21.00;96.70;;;;;;5084145;28;20402;-76
2021/06/07 04:47:03;;;;;;;3.47;3.17;;;20.90;96.70;;;;;;5099786;28;20039;-76
2021/06/07 04:49:32;;;;;;;4.47;2.78;;;20.90;96.70;;;;;;5100438;28;20138;-76
2021/06/07 04:52:01;;;;;;;4.00;3.28;;;20.90;96.70;;;;;;5096671;28;20054;-76
2021/06/07 04:54:29;;;;;;;4.18;2.80;;;20.90;96.70;;;;;;5097678;27;20040;-76
2021/06/07 04:56:57;;;;;;;3.90;3.00;;;21.00;96.70;;;;;;5098211;28;20094;-76
2021/06/07 04:59:26;;;;;;;4.45;2.97;;;21.00;96.70;;;;;;5081312;28;20047;-76
2021/06/07 05:01:54;;;;;;;3.65;3.30;;;20.90;96.70;;;;;;5105401;27;20071;-75
2021/06/07 05:04:22;;;;;;;3.33;2.80;;;20.80;96.70;;;;;;5085238;28;20553;-76
2021/06/07 05:06:52;;;;;;;4.85;3.15;;;20.80;96.70;;;;;;5098090;27;20066;-76
2021/06/07 05:09:20;;;;;;;6.75;3.60;;;20.90;96.70;;;;;;5095667;28;20047;-76
2021/06/07 05:11:49;;;;;;;3.88;3.53;;;20.90;96.70;;;;;;5098490;27;20038;-76
2021/06/07 05:14:17;;;;;;;7.07;4.20;;;20.90;96.70;;;;;;5101969;27;20035;-76
2021/06/07 05:16:45;;;;;;;6.35;3.67;;;20.90;96.70;;;;;;5099784;27;20040;-74
2021/06/07 05:19:14;;;;;;;4.80;3.80;;;20.90;96.70;;;;;;5103888;27;20085;-76
2021/06/07 05:21:43;;;;;;;6.45;4.25;;;20.80;96.70;;;;;;5101362;27;20138;-76
2021/06/07 05:24:12;;;;;;;6.57;4.35;;;20.90;96.70;;;;;;5103735;27;20466;-76
2021/06/07 05:26:42;;;;;;;5.00;3.72;;;20.90;96.70;;;;;;5103809;27;20067;-76
2021/06/07 05:29:11;;;;;;;4.38;3.85;;;21.00;96.70;;;;;;5103205;27;20378;-76
2021/06/07 05:31:40;;;;;;;5.18;4.00;;;21.00;96.70;;;;;;5101570;27;20051;-76
2021/06/07 05:34:08;;;;;;;5.05;3.95;;;21.00;96.70;;;;;;5101749;27;20039;-76
2021/06/07 05:36:37;;;;;;;6.90;3.97;;;21.10;96.70;;;;;;5109179;27;20122;-76
2021/06/07 05:39:05;;;;;;;5.53;4.10;;;21.10;96.70;;;;;;5103451;28;20036;-76
2021/06/07 05:41:35;;;;;;;6.32;4.55;;;21.10;96.70;;;;;;5098019;27;20054;-76
2021/06/07 05:44:03;;;;;;;7.53;4.43;;;21.20;96.70;;;;;;5101977;27;20040;-76
2021/06/07 05:46:32;;;;;;;6.53;4.40;;;21.20;96.70;;;;;;5103655;27;20051;-76
2021/06/07 05:49:00;;;;;;;7.38;5.47;;;21.30;96.70;;;;;;5098895;27;20063;-76
2021/06/07 05:51:28;;;;;;;8.48;4.80;;;21.30;96.70;;;;;;5105698;27;20139;-76
2021/06/07 05:53:57;;;;;;;8.13;4.47;;;21.40;96.70;;;;;;5101419;28;20031;-76
2021/06/07 05:56:25;;;;;;;5.70;4.22;;;21.50;96.70;;;;;;5103027;27;20063;-76
2021/06/07 05:58:58;;;;;;;6.07;4.22;;;21.60;96.70;;;;;;5103661;27;20040;-76
2021/06/07 06:01:28;;;;;;;6.05;4.88;;;21.60;96.70;;;;;;5084659;27;20533;-76
2021/06/07 06:03:56;;;;;;;4.68;4.18;;;21.60;96.70;;;;;;5098937;27;20098;-76
2021/06/07 06:06:25;;;;;;;8.50;5.18;;;21.70;96.70;;;;;;5098314;27;20040;-76
2021/06/07 06:08:54;;;;;;;5.13;4.63;;;21.60;96.70;;;;;;5102004;28;20420;-76
2021/06/07 06:11:22;;;;;;;7.03;4.85;;;21.60;96.70;;;;;;5101115;28;20160;-76
2021/06/07 06:13:57;;;;;;;7.63;5.38;;;21.70;96.70;;;;;;5097816;27;20048;-76
2021/06/07 06:16:25;;;;;;;7.97;5.65;;;21.70;96.70;;;;;;5099246;27;20048;-76
2021/06/07 06:18:54;;;;;;;6.78;4.80;;;21.70;96.70;;;;;;5103429;27;20150;-76
2021/06/07 06:21:26;;;;;;;9.40;4.72;;;21.80;96.70;;;;;;5098595;28;20540;-76
2021/06/07 06:23:54;;;;;;;7.93;4.72;;;21.90;96.70;;;;;;5100687;27;20112;-76
2021/06/07 06:26:24;;;;;;;7.20;4.75;;;21.90;96.70;;;;;;5099085;27;20043;-77
2021/06/07 06:28:52;;;;;;;4.72;4.05;;;21.90;96.70;;;;;;5104220;27;20043;-77
2021/06/07 06:31:22;;;;;;;6.22;4.07;;;21.90;96.70;;;;;;5102930;27;20186;-77
2021/06/07 06:33:50;;;;;;;5.78;4.47;;;21.90;96.70;;;;;;5098921;28;20040;-77
2021/06/07 06:36:19;;;;;;;9.48;5.78;;;21.90;96.70;;;;;;5106115;27;20059;-77
2021/06/07 06:38:47;;;;;;;6.57;4.53;;;21.80;96.70;;;;;;5098059;27;20068;-77
2021/06/07 06:41:16;;;;;;;6.30;4.60;;;21.80;96.70;;;;;;5100229;28;20143;-77
2021/06/07 06:43:44;;;;;;;6.15;4.43;;;21.70;96.70;;;;;;5097148;28;20123;-77
2021/06/07 06:46:12;;;;;;;6.88;4.50;;;21.80;96.70;;;;;;5102741;27;20046;-77
2021/06/07 06:48:42;;;;;;;7.05;4.78;;;21.90;96.70;;;;;;5099463;27;20050;-77
2021/06/07 06:51:11;;;;;;;6.80;6.07;;;22.00;96.70;;;;;;5102383;27;20044;-76
2021/06/07 06:53:39;;;;;;;6.63;5.60;;;22.00;96.70;;;;;;5103694;27;20063;-77
2021/06/07 06:56:08;;;;;;;8.38;5.90;;;22.00;96.70;;;;;;5116228;27;20320;-77
2021/06/07 06:58:36;;;;;;;7.13;5.97;;;21.90;96.70;;;;;;5097421;27;20089;-77
2021/06/07 07:01:05;;;;;;;11.20;6.30;;;21.90;96.70;;;;;;5098143;28;20051;-77
2021/06/07 07:03:34;;;;;;;10.15;6.28;;;22.00;96.70;;;;;;5100867;27;20043;-75
2021/06/07 07:06:04;;;;;;;8.90;6.68;;;21.90;96.70;;;;;;5084477;28;20052;-77
2021/06/07 07:08:33;;;;;;;10.02;7.40;;;22.00;96.70;;;;;;5100935;27;20055;-76
2021/06/07 07:11:02;;;;;;;11.85;6.95;;;22.00;96.70;;;;;;5083484;28;20039;-76
2021/06/07 07:13:31;;;;;;;7.82;6.93;;;22.00;96.70;;;;;;5099048;28;20493;-76
2021/06/07 07:15:59;;;;;;;10.38;7.50;;;22.00;96.70;;;;;;5100348;27;20043;-77
2021/06/07 07:18:28;;;;;;;8.05;6.43;;;22.00;96.70;;;;;;5098863;28;20039;-76
2021/06/07 07:20:56;;;;;;;9.63;6.05;;;22.20;96.70;;;;;;5086419;27;20456;-76
2021/06/07 07:23:26;;;;;;;7.78;5.28;;;22.20;96.70;;;;;;5098401;27;20043;-76
2021/06/07 07:25:54;;;;;;;9.80;5.85;;;22.30;96.70;;;;;;5099622;27;20309;-76
2021/06/07 07:28:22;;;;;;;12.32;5.82;;;22.30;96.70;;;;;;5096530;27;20040;-76
2021/06/07 07:30:50;;;;;;;5.07;4.57;;;22.40;96.70;;;;;;5098906;27;20039;-76
2021/06/07 07:33:36;;;;;;;6.60;3.95;;;22.50;96.70;;;;;;5097139;28;20039;-76
2021/06/07 07:36:06;;;;;;;7.03;4.43;;;22.50;96.70;;;;;;5101844;28;20067;-76
2021/06/07 07:38:36;;;;;;;8.50;4.47;;;22.50;96.70;;;;;;5083695;28;20040;-76
2021/06/07 07:41:04;;;;;;;6.10;3.88;;;22.60;96.70;;;;;;5104237;27;20500;-76
2021/06/07 07:43:32;;;;;;;5.25;4.45;;;22.70;96.70;;;;;;5104599;27;20498;-75
2021/06/07 07:46:01;;;;;;;5.55;4.10;;;22.80;96.70;;;;;;5101101;27;20067;-77
2021/06/07 07:48:29;;;;;;;4.97;3.90;;;22.90;96.70;;;;;;5102993;27;20497;-76
2021/06/07 07:50:57;;;;;;;4.18;3.33;;;23.00;96.70;;;;;;5101484;27;20048;-76
2021/06/07 07:53:28;;;;;;;5.85;3.42;;;23.10;96.70;;;;;;5096820;27;20067;-77
2021/06/07 07:55:57;;;;;;;5.85;3.80;;;23.20;96.70;;;;;;5094777;27;20155;-77
2021/06/07 07:58:26;;;;;;;8.27;4.18;;;23.20;96.70;;;;;;5101200;27;20047;-77
2021/06/07 08:00:54;;;;;;;7.90;4.30;;;23.20;96.70;;;;;;5089072;28;20104;-77
2021/06/07 08:03:22;;;;;;;3.75;3.45;;;23.20;96.70;;;;;;5099765;27;20044;-77
2021/06/07 08:05:50;;;;;;;4.38;3.55;;;23.30;96.70;;;;;;5096386;28;20577;-77
2021/06/07 08:08:18;;;;;;;4.50;3.53;;;23.40;96.70;;;;;;5099137;27;20047;-78
2021/06/07 08:10:48;;;;;;;5.75;3.67;;;23.40;96.70;;;;;;5098291;28;20088;-78
2021/06/07 08:13:17;;;;;;;7.70;3.67;;;23.60;96.70;;;;;;5101620;27;20054;-77
2021/06/07 08:15:45;;;;;;;7.47;3.03;;;23.60;96.70;;;;;;5096797;27;20087;-77
2021/06/07 08:18:13;;;;;;;2.90;2.50;;;23.60;96.70;;;;;;5101987;27;20425;-77
2021/06/07 08:20:45;;;;;;;2.70;2.50;;;23.60;96.70;;;;;;5103005;27;20043;-76
2021/06/07 08:23:13;;;;;;;7.45;3.03;;;23.60;96.70;;;;;;5098296;28;20042;-76
2021/06/07 08:25:41;;;;;;;4.90;3.40;;;23.70;96.70;;;;;;5096808;28;20057;-76
2021/06/07 08:28:10;;;;;;;3.72;3.28;;;23.70;96.70;;;;;;5100148;28;20039;-76
2021/06/07 08:30:39;;;;;;;4.45;3.83;;;23.80;96.70;;;;;;5096545;28;20114;-75
2021/06/07 08:33:08;;;;;;;5.47;3.58;;;23.80;96.70;;;;;;5100556;28;20122;-76
2021/06/07 08:35:36;;;;;;;5.40;3.35;;;23.90;96.70;;;;;;5098949;28;20457;-76
2021/06/07 08:38:04;;;;;;;4.55;3.40;;;24.00;96.70;;;;;;5107944;27;20445;-76
2021/06/07 08:40:33;;;;;;;6.63;4.10;;;24.00;96.70;;;;;;5103436;27;20475;-76
2021/06/07 08:43:01;;;;;;;4.57;3.70;;;24.10;96.70;;;;;;5103392;27;20088;-76
2021/06/07 08:45:30;;;;;;;5.00;3.10;;;24.00;96.70;;;;;;5104956;27;20036;-76
2021/06/07 08:48:00;;;;;;;5.45;3.67;;;24.10;96.70;;;;;;5100921;28;20107;-76
2021/06/07 08:50:30;;;;;;;5.60;3.45;;;24.10;96.70;;;;;;5089255;28;20040;-77
2021/06/07 08:52:58;;;;;;;6.07;3.42;;;24.20;96.70;;;;;;5101572;28;20039;-76
2021/06/07 08:55:29;;;;;;;5.55;3.63;;;24.30;96.70;;;;;;5102167;27;20069;-76
2021/06/07 08:58:01;;;;;;;5.10;3.63;;;24.30;96.70;;;;;;5103850;27;20043;-77
2021/06/07 09:00:31;;;;;;;3.83;2.90;;;24.50;96.70;;;;;;5102116;28;20302;-77
2021/06/07 09:03:04;;;;;;;4.43;3.60;;;24.40;96.70;;;;;;5101499;27;20480;-77
2021/06/07 09:05:34;;;;;;;5.20;3.13;;;24.30;96.70;;;;;;5099793;28;20059;-77
2021/06/07 09:08:05;;;;;;;6.07;2.97;;;24.40;96.70;;;;;;5099498;27;20040;-77
2021/06/07 09:10:35;;;;;;;4.55;3.00;;;24.60;96.70;;;;;;5107781;27;20044;-77
2021/06/07 09:13:06;;;;;;;4.32;3.10;;;24.80;96.00;;;;;;5087497;28;20411;-76
2021/06/07 09:15:37;;;;;;;4.47;3.58;;;24.80;96.40;;;;;;5100762;28;20040;-77
2021/06/07 09:18:09;;;;;;;4.72;3.53;;;24.90;96.40;;;;;;5099919;27;20040;-76
2021/06/07 09:20:39;;;;;;;4.03;3.58;;;25.00;96.60;;;;;;5103135;27;20042;-76
2021/06/07 09:23:10;;;;;;;4.40;3.25;;;25.20;95.80;;;;;;5099604;27;20036;-76
2021/06/07 09:25:39;;;;;;;3.35;3.05;;;25.40;95.60;;;;;;5106811;27;20493;-75
2021/06/07 09:28:13;;;;;;;6.57;3.00;;;25.40;94.90;;;;;;5101451;27;20501;-75
2021/06/07 09:30:46;;;;;;;4.55;2.97;;;25.50;94.90;;;;;;5102338;27;20494;-75
2021/06/07 09:33:27;;;;;;;5.35;3.17;;;25.60;95.30;;;;;;5105899;27;20048;-75
2021/06/07 09:36:17;;;;;;;7.20;3.47;;;25.80;94.70;;;;;;5099208;28;20047;-76
2021/06/07 09:39:01;;;;;;;4.80;2.70;;;25.90;94.30;;;;;;5105030;27;20036;-76
2021/06/07 09:41:31;;;;;;;4.43;2.72;;;26.00;93.10;;;;;;5100809;27;20044;-76
2021/06/07 09:44:01;;;;;;;5.50;3.47;;;26.00;92.50;;;;;;5104224;27;20126;-75
2021/06/07 09:46:31;;;;;;;4.70;2.83;;;26.10;91.90;;;;;;5102017;28;20098;-75
2021/06/07 09:49:09;;;;;;;3.97;3.05;;;26.10;92.50;;;;;;5100551;28;20043;-75
2021/06/07 09:51:38;;;;;;;6.07;3.10;;;26.00;92.90;;;;;;5104005;27;20055;-76
2021/06/07 09:54:07;;;;;;;4.45;2.75;;;26.00;92.80;;;;;;5084464;28;20046;-75
2021/06/07 09:56:48;;;;;;;3.85;3.15;;;26.00;92.40;;;;;;5103630;27;20070;-76
2021/06/07 09:59:27;;;;;;;7.18;3.45;;;26.00;92.70;;;;;;5105674;27;20044;-76
2021/06/07 10:01:57;;;;;;;4.53;2.70;;;26.00;91.30;;;;;;5097593;27;20100;-76
2021/06/07 10:04:54;;;;;;;5.72;2.80;;;26.20;92.30;;;;;;5102736;27;20042;-76
2021/06/07 10:07:23;;;;;;;4.57;2.90;;;26.40;92.20;;;;;;5115620;27;20400;-76
2021/06/07 10:10:24;;;;;;;8.07;2.92;;;26.30;91.30;;;;;;5096806;28;20056;-76
2021/06/07 10:13:04;;;;;;;4.53;3.00;;;26.60;91.60;;;;;;5115752;27;20132;-75
2021/06/07 10:15:35;;;;;;;6.80;3.10;;;26.90;90.60;;;;;;5097871;27;20521;-75
2021/06/07 10:18:05;;;;;;;4.32;2.53;;;26.80;90.00;;;;;;5101835;27;20621;-76
2021/06/07 10:23:19;;;;;;;4.28;2.75;;;26.60;89.90;;;;;;5098971;28;20392;-75
2021/06/07 10:25:48;;;;;;;4.82;3.00;;;26.80;90.20;;;;;;5103654;27;20417;-76
2021/06/07 10:28:16;;;;;;;4.28;2.47;;;26.90;89.90;;;;;;5099238;27;20036;-76
2021/06/07 10:30:46;;;;;;;2.97;2.22;;;26.90;90.00;;;;;;5104669;27;20129;-76
2021/06/07 10:33:29;;;;;;;5.03;2.70;;;26.90;89.70;;;;;;5104650;28;20523;-76
2021/06/07 10:36:29;;;;;;;4.07;2.30;;;26.70;89.40;;;;;;5099691;27;20060;-76
2021/06/07 10:39:25;;;;;;;4.25;2.38;;;26.40;90.00;;;;;;5101461;27;20481;-75
2021/06/07 10:42:14;;;;;;;4.07;2.25;;;26.30;90.20;;;;;;5085381;27;20111;-76
2021/06/07 10:44:44;;;;;;;3.03;2.40;;;26.30;90.30;;;;;;5092396;27;20051;-75
2021/06/07 10:47:14;;;;;;;4.22;2.58;;;26.30;90.20;;;;;;5106046;27;20038;-76
2021/06/07 10:49:44;;;;;;;4.47;2.78;;;26.30;89.90;;;;;;5096815;27;20050;-76
2021/06/07 10:52:17;;;;;;;3.20;2.20;;;26.30;90.10;;;;;;5104509;27;20063;-76
2021/06/07 10:54:46;;;;;;;5.47;2.70;;;26.60;89.40;;;;;;5099820;28;20078;-76
2021/06/07 10:57:35;;;;;;;3.42;2.50;;;26.90;87.50;;;;;;5100872;27;20451;-76
2021/06/07 11:00:16;;;;;;;6.53;2.35;;;27.10;87.10;;;;;;5100383;27;20704;-76
2021/06/07 11:02:46;;;;;;;4.88;2.38;;;27.30;88.00;;;;;;5101254;27;20035;-76
2021/06/07 11:05:17;;;;;;;3.50;2.28;;;27.60;87.10;;;;;;5103348;27;20512;-75
2021/06/07 11:08:03;;;;;;;3.95;2.45;;;27.80;87.20;;;;;;5107521;27;20036;-75
2021/06/07 11:10:33;;;;;;;3.45;2.13;;;27.60;87.60;;;;;;5102912;27;20048;-76
2021/06/07 11:13:04;;;;;;;4.05;2.30;;;27.40;88.20;;;;;;5100295;27;20035;-75
2021/06/07 11:15:38;;;;;;;5.60;2.47;;;27.50;88.50;;;;;;5106991;27;20118;-75
2021/06/07 11:18:27;;;;;;;3.38;2.08;;;27.70;87.70;;;;;;5094717;28;20394;-76
2021/06/07 11:20:59;;;;;;;2.67;2.00;;;27.80;87.00;;;;;;5097075;28;20047;-75
2021/06/07 11:23:46;;;;;;;4.57;2.35;;;27.70;86.90;;;;;;5100821;27;20044;-76
2021/06/07 11:26:20;;;;;;;5.00;2.55;;;28.00;86.20;;;;;;5101244;28;20050;-75
2021/06/07 11:28:50;;;;;;;4.35;2.05;;;28.10;85.40;;;;;;5099879;27;20067;-75
2021/06/07 11:31:51;;;;;;;5.93;2.35;;;28.20;85.40;;;;;;5106185;27;20072;-76
2021/06/07 11:34:45;;;;;;;3.17;2.28;;;28.40;85.40;;;;;;5098811;28;20066;-75
2021/06/07 11:37:15;;;;;;;4.65;2.33;;;28.60;84.60;;;;;;5097498;28;20067;-75
2021/06/07 11:39:51;;;;;;;4.32;1.80;;;28.70;85.00;;;;;;5100813;28;20043;-75
2021/06/07 11:42:23;;;;;;;4.60;1.90;;;28.80;84.90;;;;;;5092583;28;20508;-76
2021/06/07 11:45:01;;;;;;;5.85;2.13;;;28.80;85.00;;;;;;5115244;27;20457;-75
2021/06/07 11:47:52;;;;;;;3.55;2.00;;;28.60;85.80;;;;;;5103739;27;20044;-75
2021/06/07 11:50:29;;;;;;;4.10;1.90;;;28.80;86.00;;;;;;5101963;27;20359;-76
2021/06/07 11:53:14;;;;;;;5.03;1.75;;;28.60;85.50;;;;;;5101642;27;20516;-76
2021/06/07 11:55:44;;;;;;;2.65;1.90;;;28.50;85.50;;;;;;5100252;27;20078;-76
2021/06/07 11:58:20;;;;;;;4.18;1.95;;;28.70;85.30;;;;;;5116372;27;20044;-75
2021/06/07 12:00:51;;;;;;;3.60;1.92;;;28.90;84.60;;;;;;5096521;28;20146;-76
2021/06/07 12:03:23;;;;;;;3.03;1.90;;;29.10;84.50;;;;;;5083517;28;20043;-75
2021/06/07 12:05:52;;;;;;;5.50;1.70;;;29.20;84.50;;;;;;5096943;27;20409;-76
2021/06/07 12:08:22;;;;;;;3.75;2.15;;;29.10;84.50;;;;;;5100121;27;20401;-75
2021/06/07 12:10:54;;;;;;;2.80;1.75;;;29.20;84.60;;;;;;5100212;27;20031;-75
2021/06/07 12:13:28;;;;;;;2.17;1.70;;;28.90;85.30;;;;;;5103697;27;20052;-76
2021/06/07 12:16:01;;;;;;;3.38;1.83;;;28.50;85.80;;;;;;5097574;27;20039;-76
2021/06/07 12:18:39;;;;;;;4.57;2.10;;;28.10;85.90;;;;;;5108399;27;20044;-76
2021/06/07 12:21:11;;;;;;;2.75;1.77;;;28.00;86.10;;;;;;5099995;28;20048;-76
2021/06/07 12:23:45;;;;;;;3.22;1.90;;;28.30;86.40;;;;;;5118649;27;20054;-76
2021/06/07 12:29:24;;;;;;;3.55;1.67;;;28.60;86.60;;;;;;5091199;28;20407;-76
2021/06/07 12:32:06;;;;;;;5.15;2.03;;;28.80;85.60;;;;;;5096192;28;20047;-76
2021/06/07 12:34:35;;;;;;;5.65;2.13;;;28.70;87.60;;;;;;5096367;28;20458;-76
2021/06/07 12:37:05;;;;;;;4.57;1.95;;;28.60;87.40;;;;;;5101026;28;20096;-76
2021/06/07 12:39:33;;;;;;;3.40;1.85;;;28.40;88.30;;;;;;5101306;28;20048;-76
2021/06/07 12:42:04;;;;;;;4.00;2.00;;;28.50;88.20;;;;;;5096038;28;20067;-76
2021/06/07 12:44:32;;;;;;;3.30;1.80;;;28.70;87.20;;;;;;5095768;28;20094;-76
2021/06/07 12:47:00;;;;;;;4.65;1.60;;;28.60;87.60;;;;;;5101666;28;20426;-75
2021/06/07 12:49:30;;;;;;;4.30;1.83;;;28.60;87.80;;;;;;5121312;27;20100;-75
2021/06/07 12:52:00;;;;;;;5.03;2.05;;;28.60;87.50;;;;;;5117374;27;20100;-76
2021/06/07 12:54:33;;;;;;;3.38;1.58;;;28.70;87.50;;;;;;5102153;28;20044;-76
2021/06/07 12:57:03;;;;;;;7.03;2.08;;;28.80;86.50;;;;;;5095201;28;20052;-77
2021/06/07 12:59:34;;;;;;;4.55;2.20;;;29.00;86.70;;;;;;5097219;28;20597;-76
2021/06/07 13:02:03;;;;;;;5.93;2.17;;;29.30;86.60;;;;;;5094992;28;20405;-77
2021/06/07 13:04:37;;;;;;;3.38;1.73;;;29.10;86.40;;;;;;5100246;28;20455;-76
2021/06/07 13:07:15;;;;;;;4.28;1.60;;;29.20;87.20;;;;;;5101214;28;20050;-76
2021/06/07 13:09:44;;;;;;;2.47;1.13;;;28.80;83.40;;;;;;5096807;28;20075;-76
2021/06/07 13:12:22;;;;;;;1.83;1.13;;;28.10;83.30;;;;;;5100943;28;20066;-77
2021/06/07 13:14:52;;;;;;;3.42;1.20;;;27.70;84.20;;;;;;5084429;28;20125;-77
2021/06/07 13:17:21;;;;;;;4.80;1.52;;;27.40;85.40;;;;;;5096604;28;20128;-77